sensor_id;sensor_type;location;lat;lon;timestamp;temperature;humidity
17473;DHT22;8853;52.552;13.356;2022-07-05T00:01:54;30.60;22.80
17473;DHT22;8853;52.552;13.356;2022-07-05T00:04:23;30.60;23.40
17473;DHT22;8853;52.552;13.356;2022-07-05T00:06:51;30.60;22.80
17473;DHT22;8853;52.552;13.356;2022-07-05T00:09:39;30.60;23.00
17473;DHT22;8853;52.552;13.356;2022-07-05T00:12:08;30.60;22.90
17473;DHT22;8853;52.552;13.356;2022-07-05T00:14:37;30.60;23.00
17473;DHT22;8853;52.552;13.356;2022-07-05T00:17:06;30.60;23.00
17473;DHT22;8853;52.552;13.356;2022-07-05T00:19:34;30.60;23.00
17473;DHT22;8853;52.552;13.356;2022-07-05T00:22:03;30.60;23.00
17473;DHT22;8853;52.552;13.356;2022-07-05T00:24:32;30.60;23.00
17473;DHT22;8853;52.552;13.356;2022-07-05T00:27:00;30.60;23.00
17473;DHT22;8853;52.552;13.356;2022-07-05T00:29:29;30.50;23.00
17473;DHT22;8853;52.552;13.356;2022-07-05T00:31:57;30.60;23.10
17473;DHT22;8853;52.552;13.356;2022-07-05T00:34:26;30.60;23.10
17473;DHT22;8853;52.552;13.356;2022-07-05T00:36:55;30.60;23.20
17473;DHT22;8853;52.552;13.356;2022-07-05T00:39:23;30.60;23.20
17473;DHT22;8853;52.552;13.356;2022-07-05T00:41:52;30.50;23.20
17473;DHT22;8853;52.552;13.356;2022-07-05T00:44:31;30.60;23.20
17473;DHT22;8853;52.552;13.356;2022-07-05T00:46:58;30.60;23.20
17473;DHT22;8853;52.552;13.356;2022-07-05T00:49:27;30.60;23.30
17473;DHT22;8853;52.552;13.356;2022-07-05T00:51:56;30.50;23.40
17473;DHT22;8853;52.552;13.356;2022-07-05T00:54:24;30.50;23.40
17473;DHT22;8853;52.552;13.356;2022-07-05T00:56:53;30.60;23.40
17473;DHT22;8853;52.552;13.356;2022-07-05T00:59:22;30.50;23.40
17473;DHT22;8853;52.552;13.356;2022-07-05T01:01:50;30.50;23.40
17473;DHT22;8853;52.552;13.356;2022-07-05T01:04:19;30.50;23.70
17473;DHT22;8853;52.552;13.356;2022-07-05T01:06:49;30.50;23.70
17473;DHT22;8853;52.552;13.356;2022-07-05T01:09:17;30.50;23.80
17473;DHT22;8853;52.552;13.356;2022-07-05T01:11:46;30.50;23.80
17473;DHT22;8853;52.552;13.356;2022-07-05T01:14:21;30.50;23.90
17473;DHT22;8853;52.552;13.356;2022-07-05T01:16:50;30.40;24.10
17473;DHT22;8853;52.552;13.356;2022-07-05T01:19:18;30.40;24.00
17473;DHT22;8853;52.552;13.356;2022-07-05T01:21:47;30.40;24.10
17473;DHT22;8853;52.552;13.356;2022-07-05T01:24:16;30.40;24.10
17473;DHT22;8853;52.552;13.356;2022-07-05T01:26:45;30.40;24.20
17473;DHT22;8853;52.552;13.356;2022-07-05T01:29:13;30.40;24.10
17473;DHT22;8853;52.552;13.356;2022-07-05T01:31:42;30.40;24.10
17473;DHT22;8853;52.552;13.356;2022-07-05T01:34:11;30.40;24.20
17473;DHT22;8853;52.552;13.356;2022-07-05T01:36:40;30.40;24.20
17473;DHT22;8853;52.552;13.356;2022-07-05T01:39:09;30.40;24.20
17473;DHT22;8853;52.552;13.356;2022-07-05T01:41:38;30.40;24.20
17473;DHT22;8853;52.552;13.356;2022-07-05T01:44:06;30.40;24.20
17473;DHT22;8853;52.552;13.356;2022-07-05T01:46:35;30.40;24.20
17473;DHT22;8853;52.552;13.356;2022-07-05T01:49:04;30.30;24.20
17473;DHT22;8853;52.552;13.356;2022-07-05T01:51:45;30.40;24.20
17473;DHT22;8853;52.552;13.356;2022-07-05T01:54:10;30.30;24.20
17473;DHT22;8853;52.552;13.356;2022-07-05T01:56:39;30.30;24.20
17473;DHT22;8853;52.552;13.356;2022-07-05T01:59:07;30.30;24.20
17473;DHT22;8853;52.552;13.356;2022-07-05T02:01:38;30.30;24.20
17473;DHT22;8853;52.552;13.356;2022-07-05T02:04:05;30.30;24.20
17473;DHT22;8853;52.552;13.356;2022-07-05T02:06:34;30.30;24.20
17473;DHT22;8853;52.552;13.356;2022-07-05T02:09:03;30.30;24.10
17473;DHT22;8853;52.552;13.356;2022-07-05T02:11:30;30.20;24.20
17473;DHT22;8853;52.552;13.356;2022-07-05T02:13:59;30.20;24.10
17473;DHT22;8853;52.552;13.356;2022-07-05T02:16:28;30.20;24.10
17473;DHT22;8853;52.552;13.356;2022-07-05T02:18:56;30.20;24.10
17473;DHT22;8853;52.552;13.356;2022-07-05T02:21:25;30.20;24.10
17473;DHT22;8853;52.552;13.356;2022-07-05T02:23:54;30.20;24.10
17473;DHT22;8853;52.552;13.356;2022-07-05T02:26:22;30.20;24.10
17473;DHT22;8853;52.552;13.356;2022-07-05T02:28:53;30.20;24.60
17473;DHT22;8853;52.552;13.356;2022-07-05T02:31:21;30.10;24.10
17473;DHT22;8853;52.552;13.356;2022-07-05T02:33:50;30.20;24.20
17473;DHT22;8853;52.552;13.356;2022-07-05T02:36:19;30.10;24.20
17473;DHT22;8853;52.552;13.356;2022-07-05T02:38:48;30.10;24.20
17473;DHT22;8853;52.552;13.356;2022-07-05T02:41:16;30.10;24.20
17473;DHT22;8853;52.552;13.356;2022-07-05T02:43:45;30.10;24.20
17473;DHT22;8853;52.552;13.356;2022-07-05T02:46:14;30.10;24.20
17473;DHT22;8853;52.552;13.356;2022-07-05T02:48:42;30.10;24.20
17473;DHT22;8853;52.552;13.356;2022-07-05T02:51:11;30.00;24.20
17473;DHT22;8853;52.552;13.356;2022-07-05T02:53:40;30.00;24.30
17473;DHT22;8853;52.552;13.356;2022-07-05T03:00:14;30.00;24.30
17473;DHT22;8853;52.552;13.356;2022-07-05T03:02:43;29.80;24.40
17473;DHT22;8853;52.552;13.356;2022-07-05T03:05:12;29.80;24.30
17473;DHT22;8853;52.552;13.356;2022-07-05T03:07:41;29.80;24.30
17473;DHT22;8853;52.552;13.356;2022-07-05T03:10:09;29.80;24.30
17473;DHT22;8853;52.552;13.356;2022-07-05T03:12:38;29.90;24.30
17473;DHT22;8853;52.552;13.356;2022-07-05T03:15:07;29.90;24.30
17473;DHT22;8853;52.552;13.356;2022-07-05T03:17:36;29.80;24.30
17473;DHT22;8853;52.552;13.356;2022-07-05T03:20:05;29.80;24.30
17473;DHT22;8853;52.552;13.356;2022-07-05T03:22:34;29.80;24.50
17473;DHT22;8853;52.552;13.356;2022-07-05T03:25:03;29.80;24.40
17473;DHT22;8853;52.552;13.356;2022-07-05T03:27:32;29.80;24.50
17473;DHT22;8853;52.552;13.356;2022-07-05T03:30:01;29.80;24.50
17473;DHT22;8853;52.552;13.356;2022-07-05T03:32:29;29.80;24.60
17473;DHT22;8853;52.552;13.356;2022-07-05T03:34:58;29.70;24.60
17473;DHT22;8853;52.552;13.356;2022-07-05T03:37:26;29.70;24.60
17473;DHT22;8853;52.552;13.356;2022-07-05T03:39:55;29.70;24.70
17473;DHT22;8853;52.552;13.356;2022-07-05T03:42:24;29.70;24.70
17473;DHT22;8853;52.552;13.356;2022-07-05T03:44:52;29.70;25.40
17473;DHT22;8853;52.552;13.356;2022-07-05T03:47:21;29.70;24.80
17473;DHT22;8853;52.552;13.356;2022-07-05T03:49:50;29.70;24.80
17473;DHT22;8853;52.552;13.356;2022-07-05T03:52:18;29.70;24.80
17473;DHT22;8853;52.552;13.356;2022-07-05T03:54:47;29.60;24.90
17473;DHT22;8853;52.552;13.356;2022-07-05T03:57:16;29.60;25.00
17473;DHT22;8853;52.552;13.356;2022-07-05T03:59:45;29.60;25.00
17473;DHT22;8853;52.552;13.356;2022-07-05T04:02:13;29.60;25.00
17473;DHT22;8853;52.552;13.356;2022-07-05T04:04:42;29.60;25.10
17473;DHT22;8853;52.552;13.356;2022-07-05T04:07:11;29.60;25.10
17473;DHT22;8853;52.552;13.356;2022-07-05T04:09:39;29.60;25.10
17473;DHT22;8853;52.552;13.356;2022-07-05T04:12:08;29.60;25.10
17473;DHT22;8853;52.552;13.356;2022-07-05T04:14:37;29.60;25.20
17473;DHT22;8853;52.552;13.356;2022-07-05T04:17:06;29.60;25.20
17473;DHT22;8853;52.552;13.356;2022-07-05T04:19:34;29.60;25.20
17473;DHT22;8853;52.552;13.356;2022-07-05T04:22:03;29.60;25.30
17473;DHT22;8853;52.552;13.356;2022-07-05T04:24:32;29.60;25.40
17473;DHT22;8853;52.552;13.356;2022-07-05T04:27:00;29.50;25.40
17473;DHT22;8853;52.552;13.356;2022-07-05T04:29:29;29.60;25.40
17473;DHT22;8853;52.552;13.356;2022-07-05T04:31:58;29.50;25.50
17473;DHT22;8853;52.552;13.356;2022-07-05T04:34:26;29.50;25.60
17473;DHT22;8853;52.552;13.356;2022-07-05T04:36:55;29.50;26.30
17473;DHT22;8853;52.552;13.356;2022-07-05T04:39:24;29.50;25.70
17473;DHT22;8853;52.552;13.356;2022-07-05T04:41:52;29.40;25.80
17473;DHT22;8853;52.552;13.356;2022-07-05T04:44:21;29.40;25.80
17473;DHT22;8853;52.552;13.356;2022-07-05T04:46:50;29.40;25.90
17473;DHT22;8853;52.552;13.356;2022-07-05T04:49:18;29.40;25.90
17473;DHT22;8853;52.552;13.356;2022-07-05T04:51:47;29.40;26.00
17473;DHT22;8853;52.552;13.356;2022-07-05T04:54:15;29.40;26.10
17473;DHT22;8853;52.552;13.356;2022-07-05T04:56:44;29.40;26.20
17473;DHT22;8853;52.552;13.356;2022-07-05T04:59:13;29.40;26.20
17473;DHT22;8853;52.552;13.356;2022-07-05T05:01:41;29.40;26.40
17473;DHT22;8853;52.552;13.356;2022-07-05T05:04:10;29.40;26.40
17473;DHT22;8853;52.552;13.356;2022-07-05T05:06:39;29.40;26.40
17473;DHT22;8853;52.552;13.356;2022-07-05T05:09:07;29.50;26.30
17473;DHT22;8853;52.552;13.356;2022-07-05T05:11:36;29.50;26.20
17473;DHT22;8853;52.552;13.356;2022-07-05T05:14:05;29.50;26.20
17473;DHT22;8853;52.552;13.356;2022-07-05T05:16:34;29.50;26.20
17473;DHT22;8853;52.552;13.356;2022-07-05T05:19:03;29.50;26.10
17473;DHT22;8853;52.552;13.356;2022-07-05T05:21:31;29.60;26.10
17473;DHT22;8853;52.552;13.356;2022-07-05T05:24:00;29.60;26.10
17473;DHT22;8853;52.552;13.356;2022-07-05T05:26:29;29.60;26.10
17473;DHT22;8853;52.552;13.356;2022-07-05T05:28:57;29.60;26.00
17473;DHT22;8853;52.552;13.356;2022-07-05T05:31:27;29.70;26.00
17473;DHT22;8853;52.552;13.356;2022-07-05T05:33:55;29.70;25.90
17473;DHT22;8853;52.552;13.356;2022-07-05T05:36:24;29.70;25.90
17473;DHT22;8853;52.552;13.356;2022-07-05T05:38:53;29.70;25.80
17473;DHT22;8853;52.552;13.356;2022-07-05T05:41:21;29.80;25.80
17473;DHT22;8853;52.552;13.356;2022-07-05T05:43:51;29.80;25.70
17473;DHT22;8853;52.552;13.356;2022-07-05T05:46:19;29.80;25.70
17473;DHT22;8853;52.552;13.356;2022-07-05T05:48:48;29.80;25.60
17473;DHT22;8853;52.552;13.356;2022-07-05T05:51:17;29.80;25.60
17473;DHT22;8853;52.552;13.356;2022-07-05T05:53:45;29.80;25.60
17473;DHT22;8853;52.552;13.356;2022-07-05T05:56:14;29.80;25.60
17473;DHT22;8853;52.552;13.356;2022-07-05T05:58:43;29.80;25.50
17473;DHT22;8853;52.552;13.356;2022-07-05T06:01:11;29.90;25.50
17473;DHT22;8853;52.552;13.356;2022-07-05T06:03:40;29.90;25.40
17473;DHT22;8853;52.552;13.356;2022-07-05T06:06:09;29.90;25.50
17473;DHT22;8853;52.552;13.356;2022-07-05T06:08:38;29.90;25.40
17473;DHT22;8853;52.552;13.356;2022-07-05T06:11:07;29.90;25.40
17473;DHT22;8853;52.552;13.356;2022-07-05T06:13:35;30.00;25.90
17473;DHT22;8853;52.552;13.356;2022-07-05T06:16:05;29.90;25.40
17473;DHT22;8853;52.552;13.356;2022-07-05T06:18:33;30.00;25.80
17473;DHT22;8853;52.552;13.356;2022-07-05T06:21:02;30.00;25.80
17473;DHT22;8853;52.552;13.356;2022-07-05T06:23:30;30.00;25.80
17473;DHT22;8853;52.552;13.356;2022-07-05T06:25:59;30.00;25.70
17473;DHT22;8853;52.552;13.356;2022-07-05T06:28:28;30.00;25.70
17473;DHT22;8853;52.552;13.356;2022-07-05T06:30:57;30.00;25.70
17473;DHT22;8853;52.552;13.356;2022-07-05T06:33:26;30.00;25.70
17473;DHT22;8853;52.552;13.356;2022-07-05T06:35:54;30.00;25.70
17473;DHT22;8853;52.552;13.356;2022-07-05T06:38:23;30.00;25.70
17473;DHT22;8853;52.552;13.356;2022-07-05T06:40:52;30.10;25.70
17473;DHT22;8853;52.552;13.356;2022-07-05T06:43:21;30.10;25.70
17473;DHT22;8853;52.552;13.356;2022-07-05T06:45:49;30.10;25.60
17473;DHT22;8853;52.552;13.356;2022-07-05T06:48:18;30.10;25.60
17473;DHT22;8853;52.552;13.356;2022-07-05T06:50:47;30.10;25.60
17473;DHT22;8853;52.552;13.356;2022-07-05T06:53:15;30.10;25.60
17473;DHT22;8853;52.552;13.356;2022-07-05T06:55:45;30.10;25.60
17473;DHT22;8853;52.552;13.356;2022-07-05T06:58:13;30.10;25.60
17473;DHT22;8853;52.552;13.356;2022-07-05T07:00:42;30.20;25.60
17473;DHT22;8853;52.552;13.356;2022-07-05T07:03:11;30.20;25.50
17473;DHT22;8853;52.552;13.356;2022-07-05T07:05:39;30.20;25.50
17473;DHT22;8853;52.552;13.356;2022-07-05T07:08:08;30.20;25.50
17473;DHT22;8853;52.552;13.356;2022-07-05T07:10:56;30.10;25.60
17473;DHT22;8853;52.552;13.356;2022-07-05T07:13:25;30.20;25.60
17473;DHT22;8853;52.552;13.356;2022-07-05T07:15:54;30.20;25.60
17473;DHT22;8853;52.552;13.356;2022-07-05T07:18:23;30.10;25.60
17473;DHT22;8853;52.552;13.356;2022-07-05T07:20:51;30.20;25.60
17473;DHT22;8853;52.552;13.356;2022-07-05T07:23:21;30.20;25.60
17473;DHT22;8853;52.552;13.356;2022-07-05T07:25:49;30.20;25.50
17473;DHT22;8853;52.552;13.356;2022-07-05T07:28:19;30.20;25.50
17473;DHT22;8853;52.552;13.356;2022-07-05T07:30:47;30.20;25.50
17473;DHT22;8853;52.552;13.356;2022-07-05T07:33:16;30.20;25.50
17473;DHT22;8853;52.552;13.356;2022-07-05T07:35:44;30.30;25.50
17473;DHT22;8853;52.552;13.356;2022-07-05T07:38:13;30.30;25.50
17473;DHT22;8853;52.552;13.356;2022-07-05T07:40:42;30.30;25.50
17473;DHT22;8853;52.552;13.356;2022-07-05T07:43:11;30.30;25.50
17473;DHT22;8853;52.552;13.356;2022-07-05T07:45:39;30.30;25.50
17473;DHT22;8853;52.552;13.356;2022-07-05T07:48:08;30.30;25.50
17473;DHT22;8853;52.552;13.356;2022-07-05T07:50:36;30.30;25.50
17473;DHT22;8853;52.552;13.356;2022-07-05T07:53:05;30.30;25.50
17473;DHT22;8853;52.552;13.356;2022-07-05T07:55:34;30.30;25.50
17473;DHT22;8853;52.552;13.356;2022-07-05T07:58:02;30.30;25.50
17473;DHT22;8853;52.552;13.356;2022-07-05T08:00:31;30.30;25.50
17473;DHT22;8853;52.552;13.356;2022-07-05T08:03:00;30.30;25.50
17473;DHT22;8853;52.552;13.356;2022-07-05T08:05:28;30.30;25.40
17473;DHT22;8853;52.552;13.356;2022-07-05T08:07:57;30.30;25.40
17473;DHT22;8853;52.552;13.356;2022-07-05T08:10:26;30.40;25.50
17473;DHT22;8853;52.552;13.356;2022-07-05T08:12:54;30.40;25.50
17473;DHT22;8853;52.552;13.356;2022-07-05T08:15:23;30.40;25.50
17473;DHT22;8853;52.552;13.356;2022-07-05T08:17:52;30.30;25.50
17473;DHT22;8853;52.552;13.356;2022-07-05T08:20:40;30.40;25.50
17473;DHT22;8853;52.552;13.356;2022-07-05T08:23:27;30.30;25.50
17473;DHT22;8853;52.552;13.356;2022-07-05T08:25:56;30.30;25.60
17473;DHT22;8853;52.552;13.356;2022-07-05T08:28:25;30.30;25.60
17473;DHT22;8853;52.552;13.356;2022-07-05T08:30:53;30.30;25.60
17473;DHT22;8853;52.552;13.356;2022-07-05T08:33:22;30.40;25.60
17473;DHT22;8853;52.552;13.356;2022-07-05T08:35:51;30.40;25.60
17473;DHT22;8853;52.552;13.356;2022-07-05T08:38:19;30.40;25.50
17473;DHT22;8853;52.552;13.356;2022-07-05T08:40:49;30.40;25.50
17473;DHT22;8853;52.552;13.356;2022-07-05T08:43:17;30.40;25.50
17473;DHT22;8853;52.552;13.356;2022-07-05T08:45:45;30.40;25.50
17473;DHT22;8853;52.552;13.356;2022-07-05T08:48:15;30.40;25.50
17473;DHT22;8853;52.552;13.356;2022-07-05T08:50:43;30.40;25.50
17473;DHT22;8853;52.552;13.356;2022-07-05T08:53:12;30.40;25.50
17473;DHT22;8853;52.552;13.356;2022-07-05T08:55:40;30.40;25.50
17473;DHT22;8853;52.552;13.356;2022-07-05T08:58:09;30.50;25.50
17473;DHT22;8853;52.552;13.356;2022-07-05T09:00:42;30.40;25.50
17473;DHT22;8853;52.552;13.356;2022-07-05T09:03:09;30.50;25.50
17473;DHT22;8853;52.552;13.356;2022-07-05T09:05:43;30.50;25.50
17473;DHT22;8853;52.552;13.356;2022-07-05T09:08:15;30.50;25.50
17473;DHT22;8853;52.552;13.356;2022-07-05T09:10:44;30.50;25.50
17473;DHT22;8853;52.552;13.356;2022-07-05T09:13:12;30.50;25.50
17473;DHT22;8853;52.552;13.356;2022-07-05T09:15:41;30.50;25.50
17473;DHT22;8853;52.552;13.356;2022-07-05T09:18:10;30.50;25.50
17473;DHT22;8853;52.552;13.356;2022-07-05T09:20:39;30.50;25.50
17473;DHT22;8853;52.552;13.356;2022-07-05T09:23:08;30.50;25.50
17473;DHT22;8853;52.552;13.356;2022-07-05T09:25:36;30.50;25.50
17473;DHT22;8853;52.552;13.356;2022-07-05T09:28:06;30.50;25.50
17473;DHT22;8853;52.552;13.356;2022-07-05T09:30:35;30.50;25.50
17473;DHT22;8853;52.552;13.356;2022-07-05T09:33:15;30.50;25.50
17473;DHT22;8853;52.552;13.356;2022-07-05T09:35:56;30.50;25.40
17473;DHT22;8853;52.552;13.356;2022-07-05T09:38:25;30.50;25.50
17473;DHT22;8853;52.552;13.356;2022-07-05T09:40:56;30.50;25.50
17473;DHT22;8853;52.552;13.356;2022-07-05T09:43:28;30.50;25.50
17473;DHT22;8853;52.552;13.356;2022-07-05T09:46:00;30.50;25.50
17473;DHT22;8853;52.552;13.356;2022-07-05T09:48:28;30.50;25.50
17473;DHT22;8853;52.552;13.356;2022-07-05T09:51:09;30.50;25.50
17473;DHT22;8853;52.552;13.356;2022-07-05T09:53:52;30.50;25.50
17473;DHT22;8853;52.552;13.356;2022-07-05T09:56:20;30.50;25.50
17473;DHT22;8853;52.552;13.356;2022-07-05T09:58:49;30.50;25.60
17473;DHT22;8853;52.552;13.356;2022-07-05T10:01:27;30.50;25.60
17473;DHT22;8853;52.552;13.356;2022-07-05T10:03:59;30.50;25.50
17473;DHT22;8853;52.552;13.356;2022-07-05T10:06:27;30.50;25.50
17473;DHT22;8853;52.552;13.356;2022-07-05T10:08:55;30.50;25.50
17473;DHT22;8853;52.552;13.356;2022-07-05T10:11:24;30.60;25.50
17473;DHT22;8853;52.552;13.356;2022-07-05T10:13:53;30.60;25.50
17473;DHT22;8853;52.552;13.356;2022-07-05T10:16:22;30.60;25.50
17473;DHT22;8853;52.552;13.356;2022-07-05T10:18:51;30.60;25.50
17473;DHT22;8853;52.552;13.356;2022-07-05T10:21:19;30.60;25.40
17473;DHT22;8853;52.552;13.356;2022-07-05T10:23:48;30.60;25.40
17473;DHT22;8853;52.552;13.356;2022-07-05T10:26:20;30.60;25.40
17473;DHT22;8853;52.552;13.356;2022-07-05T10:28:52;30.60;25.40
17473;DHT22;8853;52.552;13.356;2022-07-05T10:31:20;30.70;25.40
17473;DHT22;8853;52.552;13.356;2022-07-05T10:33:48;30.70;25.40
17473;DHT22;8853;52.552;13.356;2022-07-05T10:36:17;30.70;25.40
17473;DHT22;8853;52.552;13.356;2022-07-05T10:38:46;30.70;25.40
17473;DHT22;8853;52.552;13.356;2022-07-05T10:41:17;30.60;25.40
17473;DHT22;8853;52.552;13.356;2022-07-05T10:43:44;30.70;25.40
17473;DHT22;8853;52.552;13.356;2022-07-05T10:46:14;30.70;25.30
17473;DHT22;8853;52.552;13.356;2022-07-05T10:48:41;30.70;25.30
17473;DHT22;8853;52.552;13.356;2022-07-05T10:56:11;30.70;25.40
17473;DHT22;8853;52.552;13.356;2022-07-05T10:58:39;30.80;25.30
17473;DHT22;8853;52.552;13.356;2022-07-05T11:06:39;30.70;25.40
17473;DHT22;8853;52.552;13.356;2022-07-05T11:11:38;30.70;25.40
17473;DHT22;8853;52.552;13.356;2022-07-05T11:22:27;30.70;25.50
17473;DHT22;8853;52.552;13.356;2022-07-05T11:24:56;30.60;25.60
17473;DHT22;8853;52.552;13.356;2022-07-05T11:27:25;30.70;25.50
17473;DHT22;8853;52.552;13.356;2022-07-05T11:29:55;30.70;25.50
17473;DHT22;8853;52.552;13.356;2022-07-05T11:34:52;30.80;25.50
17473;DHT22;8853;52.552;13.356;2022-07-05T11:37:24;30.70;25.40
17473;DHT22;8853;52.552;13.356;2022-07-05T11:42:37;30.80;25.90
17473;DHT22;8853;52.552;13.356;2022-07-05T11:45:06;30.80;25.40
17473;DHT22;8853;52.552;13.356;2022-07-05T11:47:35;30.70;25.40
17473;DHT22;8853;52.552;13.356;2022-07-05T11:50:03;30.80;25.40
17473;DHT22;8853;52.552;13.356;2022-07-05T11:52:32;30.80;25.30
17473;DHT22;8853;52.552;13.356;2022-07-05T11:55:02;30.80;25.30
17473;DHT22;8853;52.552;13.356;2022-07-05T11:57:29;30.80;25.30
17473;DHT22;8853;52.552;13.356;2022-07-05T11:59:58;30.80;25.30
17473;DHT22;8853;52.552;13.356;2022-07-05T12:02:26;30.90;25.20
17473;DHT22;8853;52.552;13.356;2022-07-05T12:04:56;30.90;25.20
17473;DHT22;8853;52.552;13.356;2022-07-05T12:07:30;30.90;25.20
17473;DHT22;8853;52.552;13.356;2022-07-05T12:09:58;30.80;25.20
17473;DHT22;8853;52.552;13.356;2022-07-05T12:12:46;30.80;25.20
17473;DHT22;8853;52.552;13.356;2022-07-05T12:15:18;30.80;25.30
17473;DHT22;8853;52.552;13.356;2022-07-05T12:17:46;30.80;26.00
17473;DHT22;8853;52.552;13.356;2022-07-05T12:20:15;30.80;25.30
17473;DHT22;8853;52.552;13.356;2022-07-05T12:22:43;30.90;24.70
17473;DHT22;8853;52.552;13.356;2022-07-05T12:25:12;30.90;25.30
17473;DHT22;8853;52.552;13.356;2022-07-05T12:27:41;30.80;25.20
17473;DHT22;8853;52.552;13.356;2022-07-05T12:30:10;30.90;25.20
17473;DHT22;8853;52.552;13.356;2022-07-05T12:35:43;30.90;25.20
17473;DHT22;8853;52.552;13.356;2022-07-05T12:38:15;30.90;25.30
17473;DHT22;8853;52.552;13.356;2022-07-05T12:40:43;30.80;25.30
17473;DHT22;8853;52.552;13.356;2022-07-05T12:43:13;30.90;25.40
17473;DHT22;8853;52.552;13.356;2022-07-05T12:45:42;30.80;25.30
17473;DHT22;8853;52.552;13.356;2022-07-05T12:48:10;30.90;25.30
17473;DHT22;8853;52.552;13.356;2022-07-05T12:50:51;30.90;25.30
17473;DHT22;8853;52.552;13.356;2022-07-05T12:53:19;30.90;25.20
17473;DHT22;8853;52.552;13.356;2022-07-05T12:55:58;30.90;25.30
17473;DHT22;8853;52.552;13.356;2022-07-05T12:58:54;30.90;25.30
17473;DHT22;8853;52.552;13.356;2022-07-05T13:03:55;30.80;25.40
17473;DHT22;8853;52.552;13.356;2022-07-05T13:06:23;30.90;25.40
17473;DHT22;8853;52.552;13.356;2022-07-05T13:08:58;30.90;25.30
17473;DHT22;8853;52.552;13.356;2022-07-05T13:11:30;30.90;25.30
17473;DHT22;8853;52.552;13.356;2022-07-05T13:14:00;30.90;25.30
17473;DHT22;8853;52.552;13.356;2022-07-05T13:16:29;30.90;25.20
17473;DHT22;8853;52.552;13.356;2022-07-05T13:19:09;31.00;25.70
17473;DHT22;8853;52.552;13.356;2022-07-05T13:21:35;30.90;25.20
17473;DHT22;8853;52.552;13.356;2022-07-05T13:24:04;31.00;25.70
17473;DHT22;8853;52.552;13.356;2022-07-05T13:26:33;31.00;25.70
17473;DHT22;8853;52.552;13.356;2022-07-05T13:29:02;31.00;25.70
17473;DHT22;8853;52.552;13.356;2022-07-05T13:31:30;30.90;25.20
17473;DHT22;8853;52.552;13.356;2022-07-05T13:34:00;31.00;25.70
17473;DHT22;8853;52.552;13.356;2022-07-05T13:36:28;31.00;25.70
17473;DHT22;8853;52.552;13.356;2022-07-05T13:38:57;31.00;25.70
17473;DHT22;8853;52.552;13.356;2022-07-05T13:41:26;31.00;25.60
17473;DHT22;8853;52.552;13.356;2022-07-05T13:43:54;31.00;25.60
17473;DHT22;8853;52.552;13.356;2022-07-05T13:46:23;31.00;25.60
17473;DHT22;8853;52.552;13.356;2022-07-05T13:48:52;31.10;25.60
17473;DHT22;8853;52.552;13.356;2022-07-05T13:51:20;31.10;25.60
17473;DHT22;8853;52.552;13.356;2022-07-05T13:53:49;31.10;25.60
17473;DHT22;8853;52.552;13.356;2022-07-05T13:56:19;31.10;25.70
17473;DHT22;8853;52.552;13.356;2022-07-05T13:58:47;31.00;25.60
17473;DHT22;8853;52.552;13.356;2022-07-05T14:01:17;31.00;25.60
17473;DHT22;8853;52.552;13.356;2022-07-05T14:03:46;31.00;25.60
17473;DHT22;8853;52.552;13.356;2022-07-05T14:06:14;31.10;25.60
17473;DHT22;8853;52.552;13.356;2022-07-05T14:08:43;31.00;25.60
17473;DHT22;8853;52.552;13.356;2022-07-05T14:11:11;31.10;25.60
17473;DHT22;8853;52.552;13.356;2022-07-05T14:13:40;31.10;25.60
17473;DHT22;8853;52.552;13.356;2022-07-05T14:16:09;31.10;25.60
17473;DHT22;8853;52.552;13.356;2022-07-05T14:18:38;31.10;25.60
17473;DHT22;8853;52.552;13.356;2022-07-05T14:21:06;31.10;25.60
17473;DHT22;8853;52.552;13.356;2022-07-05T14:23:35;31.10;25.50
17473;DHT22;8853;52.552;13.356;2022-07-05T14:26:04;31.10;25.50
17473;DHT22;8853;52.552;13.356;2022-07-05T14:28:33;31.10;25.60
17473;DHT22;8853;52.552;13.356;2022-07-05T14:31:03;31.10;25.50
17473;DHT22;8853;52.552;13.356;2022-07-05T14:33:32;31.20;25.60
17473;DHT22;8853;52.552;13.356;2022-07-05T14:36:00;31.10;25.50
17473;DHT22;8853;52.552;13.356;2022-07-05T14:38:29;31.20;25.50
17473;DHT22;8853;52.552;13.356;2022-07-05T14:40:58;31.10;25.50
17473;DHT22;8853;52.552;13.356;2022-07-05T14:43:27;31.20;25.50
17473;DHT22;8853;52.552;13.356;2022-07-05T14:45:55;31.20;25.50
17473;DHT22;8853;52.552;13.356;2022-07-05T14:48:24;31.20;25.50
17473;DHT22;8853;52.552;13.356;2022-07-05T14:50:53;31.20;25.50
17473;DHT22;8853;52.552;13.356;2022-07-05T14:53:22;31.20;25.50
17473;DHT22;8853;52.552;13.356;2022-07-05T14:55:52;31.20;25.50
17473;DHT22;8853;52.552;13.356;2022-07-05T14:58:20;31.20;25.50
17473;DHT22;8853;52.552;13.356;2022-07-05T15:00:49;31.20;25.50
17473;DHT22;8853;52.552;13.356;2022-07-05T15:03:18;31.20;25.40
17473;DHT22;8853;52.552;13.356;2022-07-05T15:05:47;31.20;25.50
17473;DHT22;8853;52.552;13.356;2022-07-05T15:08:15;31.20;25.40
17473;DHT22;8853;52.552;13.356;2022-07-05T15:10:45;31.20;25.50
17473;DHT22;8853;52.552;13.356;2022-07-05T15:13:14;31.30;25.50
17473;DHT22;8853;52.552;13.356;2022-07-05T15:15:43;31.20;25.40
17473;DHT22;8853;52.552;13.356;2022-07-05T15:18:12;31.20;25.50
17473;DHT22;8853;52.552;13.356;2022-07-05T15:20:41;31.20;25.40
17473;DHT22;8853;52.552;13.356;2022-07-05T15:23:09;31.20;25.40
17473;DHT22;8853;52.552;13.356;2022-07-05T15:25:39;31.20;25.50
17473;DHT22;8853;52.552;13.356;2022-07-05T15:28:07;31.20;25.40
17473;DHT22;8853;52.552;13.356;2022-07-05T15:30:37;31.30;25.50
17473;DHT22;8853;52.552;13.356;2022-07-05T15:33:05;31.20;25.40
17473;DHT22;8853;52.552;13.356;2022-07-05T15:35:33;31.30;25.40
17473;DHT22;8853;52.552;13.356;2022-07-05T15:38:02;31.30;24.70
17473;DHT22;8853;52.552;13.356;2022-07-05T15:40:31;31.30;23.60
17473;DHT22;8853;52.552;13.356;2022-07-05T15:42:59;31.20;23.40
17473;DHT22;8853;52.552;13.356;2022-07-05T15:45:28;31.20;22.60
17473;DHT22;8853;52.552;13.356;2022-07-05T15:47:57;31.20;22.10
17473;DHT22;8853;52.552;13.356;2022-07-05T15:50:25;31.20;21.90
17473;DHT22;8853;52.552;13.356;2022-07-05T15:52:54;31.20;21.60
17473;DHT22;8853;52.552;13.356;2022-07-05T15:55:23;31.10;21.90
17473;DHT22;8853;52.552;13.356;2022-07-05T15:57:51;31.10;21.10
17473;DHT22;8853;52.552;13.356;2022-07-05T16:00:20;31.00;20.90
17473;DHT22;8853;52.552;13.356;2022-07-05T16:02:48;31.00;20.60
17473;DHT22;8853;52.552;13.356;2022-07-05T16:05:17;30.90;20.20
17473;DHT22;8853;52.552;13.356;2022-07-05T16:07:46;30.90;20.40
17473;DHT22;8853;52.552;13.356;2022-07-05T16:10:15;30.90;20.20
17473;DHT22;8853;52.552;13.356;2022-07-05T16:12:43;30.90;20.10
17473;DHT22;8853;52.552;13.356;2022-07-05T16:15:13;30.80;20.30
17473;DHT22;8853;52.552;13.356;2022-07-05T16:17:41;30.80;20.30
17473;DHT22;8853;52.552;13.356;2022-07-05T16:20:11;30.70;20.40